Accueil
METAR-TAF:

METAR-TAF

Aéroports :

Benson, Angleterre

latitude: 51-37N, longitude: 001-05W, altitude: 63 m

Observation

Le bulletin a été fait il y a 23 minutes, à 05:50 UTC
Vent 10 kt de nord/nord-est
Température 10°C
Humidité 93%
Pression 1021 hPa
Visibilité: 4000 m
Ciel couvert à une hauteur de 500 ft
pluie faible

METAR: EGUB 240550Z 02010KT 4000 -RA OVC005 10/09 Q1021 YLO1 TEMPO 7000 YLO1

Heure: 07:13 (06:13 UTC)

Prévision

Le bulletin a été fait il y a 7 heures et 43 minutes, à 22:30 UTC
Prévision valable du 24 à 00 UTC au 24 à 03 UTC
Vent 8 kt de nord/nord-est
Visibilité 10 km ou plus
Ciel couvert à une hauteur de 1200 ft
Probabilité 30% :
Temporairement
du 24 à 02 UTC au 24 à 03 UTC
Visibilité: 5000 m
Nuages fragmentés à une hauteur de 4000 ft, Cumulonimbus.
averses de pluie

TAF: EGUB 232230Z 2400/2403 03008KT 9999 OVC012 PROB30 TEMPO 2402/2403 5000 SHRA BKN040CB

Observations et prévisions météorologiques de plus de 4000 aéroports (messages METAR et TAF).

Les stations disponibles sont représentées par des disques jaunes et rouges sur la carte.

Passer la souris dessus pour voir le nom de la station.

Cliquer dessus pour voir les observations et prévisions météorologiques.

Pour changer de carte: cliquez sur les boutons verts avec une croix noire pour zoomer, sur le bouton vert avec un tiret pour effectuer un zoom arrière, ou sur les flèches vertes pour les cartes adjacentes.


METAR-TAF: